sensor_id;sensor_type;location;lat;lon;timestamp;temperature;humidity
75819;DHT22;64453;51.944;9.796;2023-04-24T00:01:05;19.70;47.40
75819;DHT22;64453;51.944;9.796;2023-04-24T00:03:32;19.70;47.50
75819;DHT22;64453;51.944;9.796;2023-04-24T00:06:00;19.20;48.30
75819;DHT22;64453;51.944;9.796;2023-04-24T00:08:28;19.50;48.00
75819;DHT22;64453;51.944;9.796;2023-04-24T00:10:56;19.60;47.80
75819;DHT22;64453;51.944;9.796;2023-04-24T00:13:23;19.70;48.00
75819;DHT22;64453;51.944;9.796;2023-04-24T00:15:50;19.60;47.60
75819;DHT22;64453;51.944;9.796;2023-04-24T00:18:17;19.70;47.60
75819;DHT22;64453;51.944;9.796;2023-04-24T00:20:44;19.50;48.10
75819;DHT22;64453;51.944;9.796;2023-04-24T00:23:11;19.80;47.90
75819;DHT22;64453;51.944;9.796;2023-04-24T00:25:38;19.60;48.10
75819;DHT22;64453;51.944;9.796;2023-04-24T00:28:07;19.70;47.70
75819;DHT22;64453;51.944;9.796;2023-04-24T00:30:34;19.70;47.70
75819;DHT22;64453;51.944;9.796;2023-04-24T00:33:01;19.70;47.80
75819;DHT22;64453;51.944;9.796;2023-04-24T00:35:28;19.50;47.80
75819;DHT22;64453;51.944;9.796;2023-04-24T00:37:55;19.50;47.80
75819;DHT22;64453;51.944;9.796;2023-04-24T00:40:22;19.50;48.00
75819;DHT22;64453;51.944;9.796;2023-04-24T00:42:49;19.50;47.90
75819;DHT22;64453;51.944;9.796;2023-04-24T00:45:17;19.40;47.90
75819;DHT22;64453;51.944;9.796;2023-04-24T00:47:45;19.20;47.90
75819;DHT22;64453;51.944;9.796;2023-04-24T00:50:12;19.20;47.80
75819;DHT22;64453;51.944;9.796;2023-04-24T00:52:41;19.30;48.00
75819;DHT22;64453;51.944;9.796;2023-04-24T00:55:09;19.40;47.80
75819;DHT22;64453;51.944;9.796;2023-04-24T00:57:36;19.00;48.00
75819;DHT22;64453;51.944;9.796;2023-04-24T01:00:05;19.30;48.20
75819;DHT22;64453;51.944;9.796;2023-04-24T01:02:37;19.30;47.80
75819;DHT22;64453;51.944;9.796;2023-04-24T01:05:09;19.40;47.80
75819;DHT22;64453;51.944;9.796;2023-04-24T01:07:37;19.10;47.60
75819;DHT22;64453;51.944;9.796;2023-04-24T01:10:05;19.20;47.90
75819;DHT22;64453;51.944;9.796;2023-04-24T01:12:33;19.30;47.70
75819;DHT22;64453;51.944;9.796;2023-04-24T01:14:59;19.20;47.90
75819;DHT22;64453;51.944;9.796;2023-04-24T01:17:27;19.30;48.20
75819;DHT22;64453;51.944;9.796;2023-04-24T01:19:55;19.20;48.10
75819;DHT22;64453;51.944;9.796;2023-04-24T01:22:24;19.20;48.00
75819;DHT22;64453;51.944;9.796;2023-04-24T01:24:51;18.90;47.90
75819;DHT22;64453;51.944;9.796;2023-04-24T01:27:18;19.10;47.90
75819;DHT22;64453;51.944;9.796;2023-04-24T01:29:46;19.10;47.80
75819;DHT22;64453;51.944;9.796;2023-04-24T01:32:15;19.20;47.80
75819;DHT22;64453;51.944;9.796;2023-04-24T01:34:43;19.10;47.20
75819;DHT22;64453;51.944;9.796;2023-04-24T01:37:10;18.90;47.50
75819;DHT22;64453;51.944;9.796;2023-04-24T01:39:38;19.10;47.50
75819;DHT22;64453;51.944;9.796;2023-04-24T01:42:05;19.30;47.60
75819;DHT22;64453;51.944;9.796;2023-04-24T01:44:33;19.10;46.90
75819;DHT22;64453;51.944;9.796;2023-04-24T01:47:01;18.90;47.50
75819;DHT22;64453;51.944;9.796;2023-04-24T01:49:28;18.90;47.30
75819;DHT22;64453;51.944;9.796;2023-04-24T01:51:54;19.10;46.90
75819;DHT22;64453;51.944;9.796;2023-04-24T01:54:21;19.00;47.00
75819;DHT22;64453;51.944;9.796;2023-04-24T01:56:49;18.70;47.70
75819;DHT22;64453;51.944;9.796;2023-04-24T01:59:17;19.10;46.90
75819;DHT22;64453;51.944;9.796;2023-04-24T02:01:44;18.90;47.00
75819;DHT22;64453;51.944;9.796;2023-04-24T02:04:11;18.90;47.00
75819;DHT22;64453;51.944;9.796;2023-04-24T02:06:37;18.90;46.90
75819;DHT22;64453;51.944;9.796;2023-04-24T02:09:04;18.90;46.60
75819;DHT22;64453;51.944;9.796;2023-04-24T02:11:31;18.80;46.40
75819;DHT22;64453;51.944;9.796;2023-04-24T02:14:00;19.00;46.40
75819;DHT22;64453;51.944;9.796;2023-04-24T02:16:28;18.80;46.40
75819;DHT22;64453;51.944;9.796;2023-04-24T02:18:57;18.80;46.40
75819;DHT22;64453;51.944;9.796;2023-04-24T02:21:24;18.90;46.00
75819;DHT22;64453;51.944;9.796;2023-04-24T02:23:52;18.80;46.20
75819;DHT22;64453;51.944;9.796;2023-04-24T02:26:19;18.80;45.90
75819;DHT22;64453;51.944;9.796;2023-04-24T02:28:46;18.80;45.40
75819;DHT22;64453;51.944;9.796;2023-04-24T02:31:15;18.90;45.30
75819;DHT22;64453;51.944;9.796;2023-04-24T02:33:41;18.80;44.90
75819;DHT22;64453;51.944;9.796;2023-04-24T02:36:08;18.20;45.80
75819;DHT22;64453;51.944;9.796;2023-04-24T02:38:35;18.30;45.30
75819;DHT22;64453;51.944;9.796;2023-04-24T02:41:02;18.50;45.50
75819;DHT22;64453;51.944;9.796;2023-04-24T02:43:31;18.40;44.90
75819;DHT22;64453;51.944;9.796;2023-04-24T02:45:58;18.40;44.80
75819;DHT22;64453;51.944;9.796;2023-04-24T02:48:27;18.40;44.70
75819;DHT22;64453;51.944;9.796;2023-04-24T02:50:54;18.60;44.90
75819;DHT22;64453;51.944;9.796;2023-04-24T02:53:21;18.80;44.50
75819;DHT22;64453;51.944;9.796;2023-04-24T02:55:48;18.80;44.40
75819;DHT22;64453;51.944;9.796;2023-04-24T02:58:15;18.90;44.30
75819;DHT22;64453;51.944;9.796;2023-04-24T03:00:42;18.20;44.00
75819;DHT22;64453;51.944;9.796;2023-04-24T03:03:10;18.60;44.80
75819;DHT22;64453;51.944;9.796;2023-04-24T03:05:38;18.70;44.80
75819;DHT22;64453;51.944;9.796;2023-04-24T03:08:05;18.80;44.80
75819;DHT22;64453;51.944;9.796;2023-04-24T03:10:32;18.50;45.00
75819;DHT22;64453;51.944;9.796;2023-04-24T03:12:59;18.60;44.90
75819;DHT22;64453;51.944;9.796;2023-04-24T03:15:26;18.40;45.00
75819;DHT22;64453;51.944;9.796;2023-04-24T03:17:53;18.20;45.10
75819;DHT22;64453;51.944;9.796;2023-04-24T03:20:20;18.50;45.40
75819;DHT22;64453;51.944;9.796;2023-04-24T03:22:49;18.40;45.60
75819;DHT22;64453;51.944;9.796;2023-04-24T03:25:16;17.80;45.80
75819;DHT22;64453;51.944;9.796;2023-04-24T03:27:42;18.20;46.10
75819;DHT22;64453;51.944;9.796;2023-04-24T03:30:10;17.90;46.30
75819;DHT22;64453;51.944;9.796;2023-04-24T03:32:37;18.20;45.80
75819;DHT22;64453;51.944;9.796;2023-04-24T03:35:05;18.30;45.80
75819;DHT22;64453;51.944;9.796;2023-04-24T03:37:33;18.30;45.50
75819;DHT22;64453;51.944;9.796;2023-04-24T03:40:02;18.30;45.30
75819;DHT22;64453;51.944;9.796;2023-04-24T03:42:31;18.20;45.60
75819;DHT22;64453;51.944;9.796;2023-04-24T03:44:58;18.20;45.50
75819;DHT22;64453;51.944;9.796;2023-04-24T03:47:25;18.40;45.80
75819;DHT22;64453;51.944;9.796;2023-04-24T03:49:52;18.50;45.80
75819;DHT22;64453;51.944;9.796;2023-04-24T03:52:19;18.40;46.00
75819;DHT22;64453;51.944;9.796;2023-04-24T03:54:46;18.50;45.90
75819;DHT22;64453;51.944;9.796;2023-04-24T03:57:15;18.50;46.20
75819;DHT22;64453;51.944;9.796;2023-04-24T03:59:41;18.30;46.40
75819;DHT22;64453;51.944;9.796;2023-04-24T04:02:08;18.20;46.50
75819;DHT22;64453;51.944;9.796;2023-04-24T04:04:35;18.20;46.80
75819;DHT22;64453;51.944;9.796;2023-04-24T04:07:02;18.20;46.70
75819;DHT22;64453;51.944;9.796;2023-04-24T04:09:30;18.00;46.80
75819;DHT22;64453;51.944;9.796;2023-04-24T04:11:58;18.20;46.90
75819;DHT22;64453;51.944;9.796;2023-04-24T04:14:27;18.20;46.90
75819;DHT22;64453;51.944;9.796;2023-04-24T04:16:54;18.20;46.90
75819;DHT22;64453;51.944;9.796;2023-04-24T04:19:21;18.30;46.80
75819;DHT22;64453;51.944;9.796;2023-04-24T04:21:48;18.30;47.10
75819;DHT22;64453;51.944;9.796;2023-04-24T04:24:18;18.50;46.90
75819;DHT22;64453;51.944;9.796;2023-04-24T04:26:47;18.20;47.00
75819;DHT22;64453;51.944;9.796;2023-04-24T04:29:16;18.40;46.90
75819;DHT22;64453;51.944;9.796;2023-04-24T04:31:44;18.40;47.50
75819;DHT22;64453;51.944;9.796;2023-04-24T04:34:11;18.40;47.40
75819;DHT22;64453;51.944;9.796;2023-04-24T04:36:39;18.30;47.20
75819;DHT22;64453;51.944;9.796;2023-04-24T04:39:07;18.10;47.70
75819;DHT22;64453;51.944;9.796;2023-04-24T04:41:34;17.90;48.50
75819;DHT22;64453;51.944;9.796;2023-04-24T04:44:01;17.70;49.30
75819;DHT22;64453;51.944;9.796;2023-04-24T04:46:30;17.60;49.40
75819;DHT22;64453;51.944;9.796;2023-04-24T04:49:00;17.80;49.10
75819;DHT22;64453;51.944;9.796;2023-04-24T04:51:28;17.60;50.80
75819;DHT22;64453;51.944;9.796;2023-04-24T04:53:55;17.70;51.10
75819;DHT22;64453;51.944;9.796;2023-04-24T04:56:22;18.20;50.50
75819;DHT22;64453;51.944;9.796;2023-04-24T04:58:49;18.20;51.30
75819;DHT22;64453;51.944;9.796;2023-04-24T05:01:16;18.40;50.60
75819;DHT22;64453;51.944;9.796;2023-04-24T05:03:43;18.40;50.70
75819;DHT22;64453;51.944;9.796;2023-04-24T05:06:12;18.20;50.80
75819;DHT22;64453;51.944;9.796;2023-04-24T05:08:39;18.20;50.90
75819;DHT22;64453;51.944;9.796;2023-04-24T05:11:06;18.40;50.20
75819;DHT22;64453;51.944;9.796;2023-04-24T05:13:33;18.50;51.10
75819;DHT22;64453;51.944;9.796;2023-04-24T05:16:00;18.50;50.80
75819;DHT22;64453;51.944;9.796;2023-04-24T05:18:26;18.30;50.10
75819;DHT22;64453;51.944;9.796;2023-04-24T05:20:54;17.70;51.00
75819;DHT22;64453;51.944;9.796;2023-04-24T05:23:22;18.00;50.30
75819;DHT22;64453;51.944;9.796;2023-04-24T05:25:49;18.20;49.80
75819;DHT22;64453;51.944;9.796;2023-04-24T05:28:16;18.50;49.30
75819;DHT22;64453;51.944;9.796;2023-04-24T05:30:43;18.50;49.10
75819;DHT22;64453;51.944;9.796;2023-04-24T05:33:10;18.60;49.60
75819;DHT22;64453;51.944;9.796;2023-04-24T05:35:37;18.60;48.60
75819;DHT22;64453;51.944;9.796;2023-04-24T05:38:04;18.60;48.50
75819;DHT22;64453;51.944;9.796;2023-04-24T05:40:32;18.50;48.80
75819;DHT22;64453;51.944;9.796;2023-04-24T05:42:59;18.60;48.80
75819;DHT22;64453;51.944;9.796;2023-04-24T05:45:26;18.40;48.20
75819;DHT22;64453;51.944;9.796;2023-04-24T05:47:53;18.60;48.30
75819;DHT22;64453;51.944;9.796;2023-04-24T05:50:20;18.50;47.90
75819;DHT22;64453;51.944;9.796;2023-04-24T05:52:47;18.50;48.10
75819;DHT22;64453;51.944;9.796;2023-04-24T05:55:14;18.40;48.30
75819;DHT22;64453;51.944;9.796;2023-04-24T05:57:45;18.00;49.20
75819;DHT22;64453;51.944;9.796;2023-04-24T06:00:13;17.90;49.70
75819;DHT22;64453;51.944;9.796;2023-04-24T06:02:40;18.40;49.20
75819;DHT22;64453;51.944;9.796;2023-04-24T06:05:07;18.40;49.00
75819;DHT22;64453;51.944;9.796;2023-04-24T06:07:35;18.60;49.10
75819;DHT22;64453;51.944;9.796;2023-04-24T06:10:02;18.50;49.00
75819;DHT22;64453;51.944;9.796;2023-04-24T06:12:29;18.20;48.40
75819;DHT22;64453;51.944;9.796;2023-04-24T06:14:57;18.40;48.50
75819;DHT22;64453;51.944;9.796;2023-04-24T06:17:25;18.10;48.30
75819;DHT22;64453;51.944;9.796;2023-04-24T06:19:52;17.70;46.60
75819;DHT22;64453;51.944;9.796;2023-04-24T06:22:19;16.50;47.10
75819;DHT22;64453;51.944;9.796;2023-04-24T06:24:46;16.50;48.20
75819;DHT22;64453;51.944;9.796;2023-04-24T06:27:13;15.60;47.80
75819;DHT22;64453;51.944;9.796;2023-04-24T06:29:40;15.80;50.60
75819;DHT22;64453;51.944;9.796;2023-04-24T06:32:08;16.20;49.40
75819;DHT22;64453;51.944;9.796;2023-04-24T06:34:35;17.10;47.60
75819;DHT22;64453;51.944;9.796;2023-04-24T06:37:02;16.00;47.30
75819;DHT22;64453;51.944;9.796;2023-04-24T06:39:29;15.40;49.20
75819;DHT22;64453;51.944;9.796;2023-04-24T06:41:56;16.40;50.10
75819;DHT22;64453;51.944;9.796;2023-04-24T06:44:23;16.80;48.50
75819;DHT22;64453;51.944;9.796;2023-04-24T06:46:50;17.40;48.30
75819;DHT22;64453;51.944;9.796;2023-04-24T06:49:18;17.60;47.20
75819;DHT22;64453;51.944;9.796;2023-04-24T06:51:45;17.80;46.40
75819;DHT22;64453;51.944;9.796;2023-04-24T06:54:12;17.80;46.30
75819;DHT22;64453;51.944;9.796;2023-04-24T06:56:39;17.60;46.20
75819;DHT22;64453;51.944;9.796;2023-04-24T06:59:06;17.30;46.70
75819;DHT22;64453;51.944;9.796;2023-04-24T07:01:33;17.20;46.80
75819;DHT22;64453;51.944;9.796;2023-04-24T07:03:59;17.60;47.30
75819;DHT22;64453;51.944;9.796;2023-04-24T07:06:28;17.40;46.30
75819;DHT22;64453;51.944;9.796;2023-04-24T07:08:55;17.60;45.50
75819;DHT22;64453;51.944;9.796;2023-04-24T07:11:23;17.10;47.00
75819;DHT22;64453;51.944;9.796;2023-04-24T07:13:50;16.40;46.90
75819;DHT22;64453;51.944;9.796;2023-04-24T07:16:16;16.10;47.40
75819;DHT22;64453;51.944;9.796;2023-04-24T07:18:43;16.20;48.50
75819;DHT22;64453;51.944;9.796;2023-04-24T07:21:10;17.00;47.10
75819;DHT22;64453;51.944;9.796;2023-04-24T07:23:38;16.20;47.50
75819;DHT22;64453;51.944;9.796;2023-04-24T07:26:06;16.80;47.60
75819;DHT22;64453;51.944;9.796;2023-04-24T07:28:33;16.20;47.80
75819;DHT22;64453;51.944;9.796;2023-04-24T07:31:00;16.30;46.60
75819;DHT22;64453;51.944;9.796;2023-04-24T07:33:27;16.70;47.70
75819;DHT22;64453;51.944;9.796;2023-04-24T07:35:54;17.30;45.70
75819;DHT22;64453;51.944;9.796;2023-04-24T07:38:21;17.20;44.20
75819;DHT22;64453;51.944;9.796;2023-04-24T07:40:50;16.60;47.00
75819;DHT22;64453;51.944;9.796;2023-04-24T07:43:16;17.00;46.10
75819;DHT22;64453;51.944;9.796;2023-04-24T07:45:44;17.30;44.70
75819;DHT22;64453;51.944;9.796;2023-04-24T07:48:11;17.80;44.20
75819;DHT22;64453;51.944;9.796;2023-04-24T07:50:40;17.70;44.00
75819;DHT22;64453;51.944;9.796;2023-04-24T07:53:08;17.50;45.40
75819;DHT22;64453;51.944;9.796;2023-04-24T07:55:35;17.10;44.20
75819;DHT22;64453;51.944;9.796;2023-04-24T07:58:03;16.70;44.20
75819;DHT22;64453;51.944;9.796;2023-04-24T08:00:30;16.10;42.70
75819;DHT22;64453;51.944;9.796;2023-04-24T08:02:57;16.30;42.60
75819;DHT22;64453;51.944;9.796;2023-04-24T08:05:24;15.50;44.50
75819;DHT22;64453;51.944;9.796;2023-04-24T08:07:52;16.70;42.90
75819;DHT22;64453;51.944;9.796;2023-04-24T08:10:20;16.90;42.80
75819;DHT22;64453;51.944;9.796;2023-04-24T08:12:47;17.10;43.80
75819;DHT22;64453;51.944;9.796;2023-04-24T08:15:16;17.10;41.30
75819;DHT22;64453;51.944;9.796;2023-04-24T08:17:43;17.70;41.10
75819;DHT22;64453;51.944;9.796;2023-04-24T08:20:11;17.20;41.50
75819;DHT22;64453;51.944;9.796;2023-04-24T08:22:40;17.40;41.90
75819;DHT22;64453;51.944;9.796;2023-04-24T08:25:07;16.70;42.10
75819;DHT22;64453;51.944;9.796;2023-04-24T08:27:35;16.80;41.90
75819;DHT22;64453;51.944;9.796;2023-04-24T08:30:04;16.00;42.90
75819;DHT22;64453;51.944;9.796;2023-04-24T08:32:33;17.10;42.30
75819;DHT22;64453;51.944;9.796;2023-04-24T08:35:00;17.00;41.60
75819;DHT22;64453;51.944;9.796;2023-04-24T08:37:27;16.30;42.70
75819;DHT22;64453;51.944;9.796;2023-04-24T08:39:54;17.30;42.50
75819;DHT22;64453;51.944;9.796;2023-04-24T08:42:21;17.70;42.00
75819;DHT22;64453;51.944;9.796;2023-04-24T08:44:49;17.70;40.80
75819;DHT22;64453;51.944;9.796;2023-04-24T08:47:16;18.00;40.80
75819;DHT22;64453;51.944;9.796;2023-04-24T08:49:44;17.90;39.80
75819;DHT22;64453;51.944;9.796;2023-04-24T08:52:12;18.20;39.60
75819;DHT22;64453;51.944;9.796;2023-04-24T08:54:39;17.00;38.30
75819;DHT22;64453;51.944;9.796;2023-04-24T08:57:07;17.20;39.20
75819;DHT22;64453;51.944;9.796;2023-04-24T08:59:38;17.30;39.20
75819;DHT22;64453;51.944;9.796;2023-04-24T09:02:05;16.40;39.70
75819;DHT22;64453;51.944;9.796;2023-04-24T09:04:33;15.90;40.60
75819;DHT22;64453;51.944;9.796;2023-04-24T09:07:03;16.70;41.20
75819;DHT22;64453;51.944;9.796;2023-04-24T09:09:33;16.70;40.20
75819;DHT22;64453;51.944;9.796;2023-04-24T09:12:01;16.90;41.20
75819;DHT22;64453;51.944;9.796;2023-04-24T09:14:29;17.10;40.70
75819;DHT22;64453;51.944;9.796;2023-04-24T09:16:57;17.10;39.20
75819;DHT22;64453;51.944;9.796;2023-04-24T09:19:24;17.60;38.70
75819;DHT22;64453;51.944;9.796;2023-04-24T09:21:52;18.00;38.80
75819;DHT22;64453;51.944;9.796;2023-04-24T09:24:21;17.60;39.40
75819;DHT22;64453;51.944;9.796;2023-04-24T09:26:55;17.90;38.00
75819;DHT22;64453;51.944;9.796;2023-04-24T09:29:23;17.60;38.90
75819;DHT22;64453;51.944;9.796;2023-04-24T09:31:50;17.20;39.40
75819;DHT22;64453;51.944;9.796;2023-04-24T09:34:21;17.50;39.60
75819;DHT22;64453;51.944;9.796;2023-04-24T09:36:50;18.00;39.20
75819;DHT22;64453;51.944;9.796;2023-04-24T09:39:18;18.20;39.00
75819;DHT22;64453;51.944;9.796;2023-04-24T09:41:49;18.00;37.70
75819;DHT22;64453;51.944;9.796;2023-04-24T09:44:17;18.00;38.60
75819;DHT22;64453;51.944;9.796;2023-04-24T09:46:50;18.40;38.70
75819;DHT22;64453;51.944;9.796;2023-04-24T09:49:23;18.30;37.70
75819;DHT22;64453;51.944;9.796;2023-04-24T09:51:50;18.30;37.80
75819;DHT22;64453;51.944;9.796;2023-04-24T09:54:19;18.10;37.50
75819;DHT22;64453;51.944;9.796;2023-04-24T09:56:49;17.50;38.40
75819;DHT22;64453;51.944;9.796;2023-04-24T09:59:18;18.00;38.70
75819;DHT22;64453;51.944;9.796;2023-04-24T10:01:46;17.90;38.80
75819;DHT22;64453;51.944;9.796;2023-04-24T10:04:18;18.00;38.90
75819;DHT22;64453;51.944;9.796;2023-04-24T10:06:46;17.50;37.90
75819;DHT22;64453;51.944;9.796;2023-04-24T10:09:14;18.10;38.50
75819;DHT22;64453;51.944;9.796;2023-04-24T10:11:42;18.30;39.00
75819;DHT22;64453;51.944;9.796;2023-04-24T10:14:13;18.60;38.90
75819;DHT22;64453;51.944;9.796;2023-04-24T10:16:41;18.40;38.30
75819;DHT22;64453;51.944;9.796;2023-04-24T10:19:09;17.90;37.80
75819;DHT22;64453;51.944;9.796;2023-04-24T10:21:40;18.10;38.50
75819;DHT22;64453;51.944;9.796;2023-04-24T10:24:12;18.40;38.90
75819;DHT22;64453;51.944;9.796;2023-04-24T10:26:41;18.50;39.50
75819;DHT22;64453;51.944;9.796;2023-04-24T10:29:08;18.90;39.60
75819;DHT22;64453;51.944;9.796;2023-04-24T10:31:39;18.60;39.10
75819;DHT22;64453;51.944;9.796;2023-04-24T10:34:08;18.70;38.00
75819;DHT22;64453;51.944;9.796;2023-04-24T10:36:40;18.60;38.40
75819;DHT22;64453;51.944;9.796;2023-04-24T10:39:11;17.50;38.30
75819;DHT22;64453;51.944;9.796;2023-04-24T10:41:40;17.90;38.80
75819;DHT22;64453;51.944;9.796;2023-04-24T10:44:07;17.80;38.20
75819;DHT22;64453;51.944;9.796;2023-04-24T10:46:35;17.70;38.10
75819;DHT22;64453;51.944;9.796;2023-04-24T10:49:05;17.50;39.10
75819;DHT22;64453;51.944;9.796;2023-04-24T10:51:45;17.50;39.00
75819;DHT22;64453;51.944;9.796;2023-04-24T10:54:23;18.20;38.60
75819;DHT22;64453;51.944;9.796;2023-04-24T10:56:53;18.30;38.40
75819;DHT22;64453;51.944;9.796;2023-04-24T10:59:24;17.40;39.00
75819;DHT22;64453;51.944;9.796;2023-04-24T11:01:53;17.70;39.60
75819;DHT22;64453;51.944;9.796;2023-04-24T11:04:31;17.30;40.20
75819;DHT22;64453;51.944;9.796;2023-04-24T11:06:59;17.70;40.10
75819;DHT22;64453;51.944;9.796;2023-04-24T11:09:27;17.90;39.90
75819;DHT22;64453;51.944;9.796;2023-04-24T11:12:03;17.40;40.50
75819;DHT22;64453;51.944;9.796;2023-04-24T11:15:00;17.40;41.10
75819;DHT22;64453;51.944;9.796;2023-04-24T11:17:33;18.10;41.00
75819;DHT22;64453;51.944;9.796;2023-04-24T11:20:05;17.30;41.50
75819;DHT22;64453;51.944;9.796;2023-04-24T11:22:36;17.70;41.90
75819;DHT22;64453;51.944;9.796;2023-04-24T11:25:06;18.40;41.60
75819;DHT22;64453;51.944;9.796;2023-04-24T11:27:39;18.50;40.50
75819;DHT22;64453;51.944;9.796;2023-04-24T11:30:08;17.90;43.90
75819;DHT22;64453;51.944;9.796;2023-04-24T11:32:37;17.80;43.40
75819;DHT22;64453;51.944;9.796;2023-04-24T11:35:08;18.30;44.40
75819;DHT22;64453;51.944;9.796;2023-04-24T11:37:37;18.40;42.60
75819;DHT22;64453;51.944;9.796;2023-04-24T11:40:07;18.60;44.00
75819;DHT22;64453;51.944;9.796;2023-04-24T11:42:37;18.10;44.30
75819;DHT22;64453;51.944;9.796;2023-04-24T11:45:08;18.70;44.20
75819;DHT22;64453;51.944;9.796;2023-04-24T11:47:36;18.10;45.00
75819;DHT22;64453;51.944;9.796;2023-04-24T11:50:10;18.70;44.80
75819;DHT22;64453;51.944;9.796;2023-04-24T11:52:39;18.50;44.50
75819;DHT22;64453;51.944;9.796;2023-04-24T11:55:07;18.30;43.30
75819;DHT22;64453;51.944;9.796;2023-04-24T11:57:38;17.40;42.70
75819;DHT22;64453;51.944;9.796;2023-04-24T12:00:15;17.80;43.30
75819;DHT22;64453;51.944;9.796;2023-04-24T12:02:44;18.20;44.80
75819;DHT22;64453;51.944;9.796;2023-04-24T12:05:21;18.10;42.80
75819;DHT22;64453;51.944;9.796;2023-04-24T12:07:48;17.20;42.90
75819;DHT22;64453;51.944;9.796;2023-04-24T12:10:20;17.70;43.10
75819;DHT22;64453;51.944;9.796;2023-04-24T12:12:47;17.60;44.40
75819;DHT22;64453;51.944;9.796;2023-04-24T12:15:16;18.20;44.40
75819;DHT22;64453;51.944;9.796;2023-04-24T12:17:44;18.40;43.40
75819;DHT22;64453;51.944;9.796;2023-04-24T12:20:12;17.60;43.60
75819;DHT22;64453;51.944;9.796;2023-04-24T12:22:45;17.40;45.80
75819;DHT22;64453;51.944;9.796;2023-04-24T12:25:14;16.90;46.30
75819;DHT22;64453;51.944;9.796;2023-04-24T12:27:41;15.70;47.80
75819;DHT22;64453;51.944;9.796;2023-04-24T12:30:11;16.50;48.50
75819;DHT22;64453;51.944;9.796;2023-04-24T12:32:43;15.70;46.50
75819;DHT22;64453;51.944;9.796;2023-04-24T12:35:12;14.70;48.40
75819;DHT22;64453;51.944;9.796;2023-04-24T12:37:41;15.50;48.50
75819;DHT22;64453;51.944;9.796;2023-04-24T12:40:11;14.40;47.50
75819;DHT22;64453;51.944;9.796;2023-04-24T12:42:43;15.00;47.70
75819;DHT22;64453;51.944;9.796;2023-04-24T12:45:11;14.40;47.30
75819;DHT22;64453;51.944;9.796;2023-04-24T12:47:39;15.20;48.70
75819;DHT22;64453;51.944;9.796;2023-04-24T12:50:08;15.70;46.60
75819;DHT22;64453;51.944;9.796;2023-04-24T12:52:35;16.00;44.90
75819;DHT22;64453;51.944;9.796;2023-04-24T12:55:03;15.00;45.70
75819;DHT22;64453;51.944;9.796;2023-04-24T12:57:36;16.00;46.40
75819;DHT22;64453;51.944;9.796;2023-04-24T13:00:05;15.80;44.80
75819;DHT22;64453;51.944;9.796;2023-04-24T13:02:34;15.50;46.00
75819;DHT22;64453;51.944;9.796;2023-04-24T13:05:01;15.60;45.60
75819;DHT22;64453;51.944;9.796;2023-04-24T13:07:29;16.40;45.20
75819;DHT22;64453;51.944;9.796;2023-04-24T13:09:56;16.10;45.90
75819;DHT22;64453;51.944;9.796;2023-04-24T13:12:23;16.50;45.50
75819;DHT22;64453;51.944;9.796;2023-04-24T13:14:52;15.90;45.00
75819;DHT22;64453;51.944;9.796;2023-04-24T13:17:19;15.00;45.60
75819;DHT22;64453;51.944;9.796;2023-04-24T13:19:46;15.80;47.20
75819;DHT22;64453;51.944;9.796;2023-04-24T13:22:15;16.20;45.40
75819;DHT22;64453;51.944;9.796;2023-04-24T13:24:44;15.40;46.30
75819;DHT22;64453;51.944;9.796;2023-04-24T13:27:11;16.20;46.80
75819;DHT22;64453;51.944;9.796;2023-04-24T13:29:38;15.00;47.70
75819;DHT22;64453;51.944;9.796;2023-04-24T13:32:07;14.90;48.60
75819;DHT22;64453;51.944;9.796;2023-04-24T13:34:34;14.20;48.10
75819;DHT22;64453;51.944;9.796;2023-04-24T13:37:02;13.30;50.70
75819;DHT22;64453;51.944;9.796;2023-04-24T13:39:30;13.80;50.60
75819;DHT22;64453;51.944;9.796;2023-04-24T13:41:57;13.50;51.20
75819;DHT22;64453;51.944;9.796;2023-04-24T13:44:25;13.40;52.30
75819;DHT22;64453;51.944;9.796;2023-04-24T13:46:54;13.50;52.00
75819;DHT22;64453;51.944;9.796;2023-04-24T13:49:24;12.90;53.00
75819;DHT22;64453;51.944;9.796;2023-04-24T13:51:52;13.60;54.90
75819;DHT22;64453;51.944;9.796;2023-04-24T13:54:19;13.20;54.30
75819;DHT22;64453;51.944;9.796;2023-04-24T13:56:47;12.90;55.10
75819;DHT22;64453;51.944;9.796;2023-04-24T13:59:14;12.70;55.60
75819;DHT22;64453;51.944;9.796;2023-04-24T14:01:41;13.00;56.20
75819;DHT22;64453;51.944;9.796;2023-04-24T14:04:10;13.10;54.30
75819;DHT22;64453;51.944;9.796;2023-04-24T14:06:38;12.60;55.80
75819;DHT22;64453;51.944;9.796;2023-04-24T14:09:06;12.10;56.90
75819;DHT22;64453;51.944;9.796;2023-04-24T14:11:33;12.30;58.60
75819;DHT22;64453;51.944;9.796;2023-04-24T14:14:01;12.20;57.50
75819;DHT22;64453;51.944;9.796;2023-04-24T14:16:28;12.60;58.40
75819;DHT22;64453;51.944;9.796;2023-04-24T14:18:55;12.60;56.40
75819;DHT22;64453;51.944;9.796;2023-04-24T14:21:22;13.00;56.20
75819;DHT22;64453;51.944;9.796;2023-04-24T14:23:51;12.40;56.40
75819;DHT22;64453;51.944;9.796;2023-04-24T14:26:17;13.20;57.10
75819;DHT22;64453;51.944;9.796;2023-04-24T14:28:45;13.40;55.80
75819;DHT22;64453;51.944;9.796;2023-04-24T14:31:12;13.50;53.90
75819;DHT22;64453;51.944;9.796;2023-04-24T14:33:39;13.40;52.90
75819;DHT22;64453;51.944;9.796;2023-04-24T14:36:06;13.60;54.00
75819;DHT22;64453;51.944;9.796;2023-04-24T14:38:33;14.50;52.90
75819;DHT22;64453;51.944;9.796;2023-04-24T14:41:02;14.30;53.10
75819;DHT22;64453;51.944;9.796;2023-04-24T14:43:34;13.80;53.10
75819;DHT22;64453;51.944;9.796;2023-04-24T14:46:01;13.90;53.50
75819;DHT22;64453;51.944;9.796;2023-04-24T14:48:29;14.80;51.70
75819;DHT22;64453;51.944;9.796;2023-04-24T14:50:56;14.40;53.30
75819;DHT22;64453;51.944;9.796;2023-04-24T14:53:22;14.30;52.60
75819;DHT22;64453;51.944;9.796;2023-04-24T14:55:49;14.40;54.70
75819;DHT22;64453;51.944;9.796;2023-04-24T14:58:18;15.10;51.70
75819;DHT22;64453;51.944;9.796;2023-04-24T15:00:45;13.70;53.40
75819;DHT22;64453;51.944;9.796;2023-04-24T15:03:15;12.90;55.70
75819;DHT22;64453;51.944;9.796;2023-04-24T15:05:42;13.50;56.30
75819;DHT22;64453;51.944;9.796;2023-04-24T15:08:09;13.30;55.30
75819;DHT22;64453;51.944;9.796;2023-04-24T15:10:36;12.20;57.60
75819;DHT22;64453;51.944;9.796;2023-04-24T15:13:03;12.40;57.00
75819;DHT22;64453;51.944;9.796;2023-04-24T15:15:32;13.10;56.70
75819;DHT22;64453;51.944;9.796;2023-04-24T15:17:58;13.00;56.40
75819;DHT22;64453;51.944;9.796;2023-04-24T15:20:25;12.90;55.70
75819;DHT22;64453;51.944;9.796;2023-04-24T15:22:52;13.80;55.90
75819;DHT22;64453;51.944;9.796;2023-04-24T15:25:20;13.60;54.70
75819;DHT22;64453;51.944;9.796;2023-04-24T15:27:47;13.10;56.10
75819;DHT22;64453;51.944;9.796;2023-04-24T15:30:15;12.70;55.60
75819;DHT22;64453;51.944;9.796;2023-04-24T15:32:44;13.20;56.90
75819;DHT22;64453;51.944;9.796;2023-04-24T15:35:11;13.30;55.90